Terminal Aerodrome Forecast
Issued by NWS

Home | Current Version | Previous Version | Text Only | Print | Product List | Glossary Off
Versions: 1 2 3 4 5 6 7 8 9 10 11 12 13 14 15 16

852
FTUS43 KTOP 301721
TAFFOE
TAF
KFOE 301721Z 3018/0118 24011KT P6SM BKN015
     FM302100 28010KT P6SM SCT015 BKN035
     FM010700 27010KT P6SM SCT004 BKN012=

USA.gov is the U.S. government's official web portal to all federal, state and local government web resources and services.